Time;durP1;ratioP1;P1;durP2;ratioP2;P2;SDS_P1;SDS_P2;PMS_P1;PMS_P2;Temp;Humidity;BMP_temperature;BMP_pressure;BME280_temperature;BME280_humidity;BME280_pressure;Samples;Min_cycle;Max_cycle;Signal;HPM_P1;HPM_P2
2022/10/03 00:00:36;;;;;;;15.83;10.30;;;;;;;9.08;100.00;97045.47;5027886;28;20056;-76
2022/10/03 00:03:32;;;;;;;16.70;10.70;;;;;;;9.12;100.00;97052.09;5025520;28;20073;-75
2022/10/03 00:06:57;;;;;;;14.37;10.03;;;;;;;9.11;100.00;97046.03;5005731;28;20041;-75
2022/10/03 00:09:26;;;;;;;13.95;9.93;;;;;;;9.14;100.00;97039.69;4971924;28;20813;-75
2022/10/03 00:12:11;;;;;;;15.13;10.37;;;;;;;9.13;100.00;97044.13;4983412;28;20033;-76
2022/10/03 00:14:49;;;;;;;14.57;9.70;;;;;;;9.16;100.00;97041.25;4997784;28;20441;-76
2022/10/03 00:17:40;;;;;;;13.03;9.37;;;;;;;9.16;100.00;97054.34;4997881;28;20124;-76
2022/10/03 00:20:35;;;;;;;17.30;11.60;;;;;;;9.15;100.00;97062.34;4986817;28;20048;-76
2022/10/03 00:23:14;;;;;;;15.63;10.70;;;;;;;9.17;100.00;97058.63;4997358;28;20494;-74
2022/10/03 00:25:45;;;;;;;13.33;9.70;;;;;;;9.20;100.00;97055.75;4940739;28;20080;-74
2022/10/03 00:28:53;;;;;;;12.93;10.03;;;;;;;9.17;100.00;97061.25;4947527;28;20039;-74
2022/10/03 00:31:46;;;;;;;17.53;11.77;;;;;;;9.09;100.00;97057.66;4944904;28;20121;-74
2022/10/03 00:34:24;;;;;;;16.10;11.83;;;;;;;9.03;100.00;97053.72;4945908;28;20082;-73
2022/10/03 00:37:14;;;;;;;15.63;11.37;;;;;;;8.97;100.00;97054.25;4921200;28;20030;-74
2022/10/03 00:40:10;;;;;;;14.93;10.60;;;;;;;8.93;100.00;97065.97;4895248;28;20034;-74
2022/10/03 00:43:10;;;;;;;20.07;13.10;;;;;;;8.90;100.00;97058.34;4888131;28;20926;-75
2022/10/03 00:45:57;;;;;;;17.50;10.83;;;;;;;8.83;100.00;97065.06;4948115;28;20060;-74
2022/10/03 00:48:37;;;;;;;16.37;11.73;;;;;;;8.81;100.00;97064.34;4990577;28;20041;-74
2022/10/03 00:51:18;;;;;;;19.47;11.30;;;;;;;8.76;100.00;97069.16;5012475;28;20636;-74
2022/10/03 00:54:05;;;;;;;16.70;11.20;;;;;;;8.68;100.00;97073.22;5020650;28;20041;-73
2022/10/03 00:56:46;;;;;;;15.33;10.97;;;;;;;8.67;100.00;97074.19;5011099;28;20052;-74
2022/10/03 00:59:14;;;;;;;17.30;12.27;;;;;;;8.59;100.00;97071.38;5018733;28;20538;-74
2022/10/03 01:01:46;;;;;;;15.23;10.27;;;;;;;8.66;100.00;97079.59;5001162;28;20034;-74
2022/10/03 01:04:12;;;;;;;18.90;10.73;;;;;;;8.67;100.00;97084.69;5014059;28;20437;-74
2022/10/03 01:07:10;;;;;;;15.70;11.47;;;;;;;8.72;100.00;97087.78;5012795;28;20034;-73
2022/10/03 01:10:00;;;;;;;16.90;11.20;;;;;;;8.67;100.00;97089.94;5001886;28;20080;-74
2022/10/03 01:12:39;;;;;;;16.73;11.50;;;;;;;8.74;100.00;97087.63;5014875;28;20163;-74
2022/10/03 01:15:29;;;;;;;18.03;11.17;;;;;;;8.77;100.00;97083.94;5005384;28;20037;-74
2022/10/03 01:18:21;;;;;;;17.83;11.63;;;;;;;8.82;100.00;97087.84;5023240;28;20443;-74
2022/10/03 01:21:12;;;;;;;20.70;12.27;;;;;;;8.87;100.00;97084.84;5014043;28;20490;-74
2022/10/03 01:24:23;;;;;;;19.60;11.87;;;;;;;8.88;100.00;97083.88;5015057;28;20458;-74
2022/10/03 01:26:55;;;;;;;19.00;12.70;;;;;;;8.89;100.00;97083.75;5002499;28;20053;-74
2022/10/03 01:32:37;;;;;;;16.80;11.00;;;;;;;8.93;100.00;97090.41;5017444;28;20449;-74
2022/10/03 01:35:25;;;;;;;20.40;12.97;;;;;;;8.92;100.00;97083.50;5009319;28;20065;-74
2022/10/03 01:38:12;;;;;;;17.37;11.83;;;;;;;8.92;100.00;97078.25;5009471;28;20109;-74
2022/10/03 01:41:16;;;;;;;17.93;12.43;;;;;;;8.96;100.00;97081.44;5029632;28;20045;-74
2022/10/03 01:44:01;;;;;;;16.75;12.48;;;;;;;8.97;100.00;97083.09;4984427;28;20065;-74
2022/10/03 01:46:48;;;;;;;19.90;12.67;;;;;;;9.03;100.00;97087.00;5008870;28;20550;-74
2022/10/03 01:49:20;;;;;;;19.97;13.70;;;;;;;9.04;100.00;97091.28;5006699;28;20061;-73
2022/10/03 01:52:14;;;;;;;17.08;10.40;;;;;;;9.04;100.00;97092.13;4996648;28;20502;-74
2022/10/03 01:54:49;;;;;;;18.88;11.90;;;;;;;9.08;100.00;97093.53;5012613;28;20149;-74
2022/10/03 01:57:24;;;;;;;20.17;12.57;;;;;;;9.13;100.00;97090.53;5016742;28;20026;-74
2022/10/03 02:00:19;;;;;;;23.10;14.47;;;;;;;9.12;100.00;97089.69;5006333;28;20061;-74
2022/10/03 02:03:03;;;;;;;20.33;13.60;;;;;;;9.15;100.00;97097.31;5013042;28;20034;-73
2022/10/03 02:05:59;;;;;;;17.27;12.83;;;;;;;9.16;100.00;97085.84;5002207;28;20112;-74
2022/10/03 02:08:41;;;;;;;21.40;13.53;;;;;;;9.19;100.00;97109.22;5016075;28;20064;-73
2022/10/03 02:11:09;;;;;;;19.20;13.07;;;;;;;9.19;100.00;97098.72;4991021;28;20037;-74
2022/10/03 02:13:44;;;;;;;17.83;12.93;;;;;;;9.19;100.00;97090.03;5024505;28;20034;-74
2022/10/03 02:16:19;;;;;;;22.43;14.47;;;;;;;9.15;100.00;97099.94;5011823;28;20061;-74
2022/10/03 02:19:05;;;;;;;23.03;14.93;;;;;;;9.14;100.00;97114.00;5006782;28;20060;-74
2022/10/03 02:21:33;;;;;;;21.77;14.40;;;;;;;9.12;100.00;97115.94;5008705;28;20038;-74
2022/10/03 02:24:19;;;;;;;25.27;15.50;;;;;;;9.14;100.00;97119.25;5002395;28;20030;-73
2022/10/03 02:27:24;;;;;;;21.40;15.20;;;;;;;9.17;100.00;97116.38;5004882;28;20042;-74
2022/10/03 02:30:05;;;;;;;21.07;14.60;;;;;;;9.21;100.00;97120.41;5014749;28;20045;-74
2022/10/03 02:33:13;;;;;;;22.43;15.97;;;;;;;9.20;100.00;97118.75;5011634;28;20104;-74
2022/10/03 02:35:57;;;;;;;20.50;15.03;;;;;;;9.22;100.00;97129.09;5014429;28;20117;-74
2022/10/03 02:38:43;;;;;;;22.37;14.57;;;;;;;9.23;100.00;97129.97;5007262;28;20124;-74
2022/10/03 02:41:31;;;;;;;23.97;14.80;;;;;;;9.25;100.00;97133.25;5030524;28;20655;-74
2022/10/03 02:44:18;;;;;;;23.23;15.90;;;;;;;9.29;100.00;97134.66;5011039;28;20029;-73
2022/10/03 02:47:19;;;;;;;26.63;16.43;;;;;;;9.26;100.00;97132.31;5017894;28;20034;-74
2022/10/03 02:50:21;;;;;;;21.63;15.43;;;;;;;9.29;100.00;97138.16;5013843;28;20034;-74
2022/10/03 02:52:59;;;;;;;23.53;15.90;;;;;;;9.25;100.00;97143.75;5032853;28;20418;-74
2022/10/03 02:55:44;;;;;;;25.03;15.53;;;;;;;9.23;100.00;97138.66;5028286;28;20065;-74
2022/10/03 02:58:10;;;;;;;26.97;15.33;;;;;;;9.27;100.00;97144.47;5021190;28;20038;-73
2022/10/03 03:01:00;;;;;;;23.20;15.67;;;;;;;9.31;100.00;97143.25;5022083;28;20284;-74
2022/10/03 03:04:01;;;;;;;24.77;15.87;;;;;;;9.33;100.00;97136.09;4999377;28;20072;-74
2022/10/03 03:06:41;;;;;;;20.20;15.00;;;;;;;9.29;100.00;97146.03;5003116;28;20034;-74
2022/10/03 03:09:28;;;;;;;24.60;16.07;;;;;;;9.29;100.00;97145.16;4993502;28;20060;-73
2022/10/03 03:12:03;;;;;;;27.40;17.43;;;;;;;9.28;100.00;97149.59;5022106;28;20033;-73
2022/10/03 03:15:10;;;;;;;23.83;16.57;;;;;;;9.30;100.00;97145.06;5005890;28;20116;-74
2022/10/03 03:18:05;;;;;;;23.27;15.53;;;;;;;9.26;100.00;97148.91;4982784;28;20043;-74
2022/10/03 03:20:42;;;;;;;27.93;15.33;;;;;;;9.34;100.00;97145.63;5024066;28;20507;-74
2022/10/03 03:23:45;;;;;;;24.80;15.23;;;;;;;9.29;100.00;97147.78;5008650;28;20037;-74
2022/10/03 03:26:22;;;;;;;27.77;15.83;;;;;;;9.29;100.00;97148.66;5015436;28;20069;-74
2022/10/03 03:29:06;;;;;;;24.90;16.53;;;;;;;9.30;100.00;97154.72;5003537;28;20494;-74
2022/10/03 03:31:31;;;;;;;25.43;15.10;;;;;;;9.29;100.00;97145.16;4995991;28;20399;-73
2022/10/03 03:34:17;;;;;;;27.53;16.63;;;;;;;9.29;100.00;97150.41;5022516;28;20032;-74
2022/10/03 03:36:53;;;;;;;24.33;15.93;;;;;;;9.30;100.00;97152.09;5015276;28;20933;-74
2022/10/03 03:39:33;;;;;;;29.63;16.77;;;;;;;9.31;100.00;97151.94;5016935;28;20815;-73
2022/10/03 03:42:17;;;;;;;22.53;16.37;;;;;;;9.32;100.00;97147.53;4999708;28;20052;-74
2022/10/03 03:44:43;;;;;;;23.10;16.40;;;;;;;9.28;100.00;97146.13;5022987;28;20479;-74
2022/10/03 03:47:09;;;;;;;29.63;18.33;;;;;;;9.30;100.00;97145.06;5013360;28;20088;-74
2022/10/03 03:49:47;;;;;;;26.30;15.87;;;;;;;9.27;100.00;97137.44;5032627;28;20029;-74
2022/10/03 03:52:24;;;;;;;23.60;16.23;;;;;;;9.21;100.00;97136.16;5043705;28;20030;-73
2022/10/03 03:55:19;;;;;;;21.60;16.23;;;;;;;9.12;100.00;97136.06;5015972;28;20068;-74
2022/10/03 03:58:04;;;;;;;23.47;15.80;;;;;;;9.08;100.00;97132.88;5007291;28;20026;-74
2022/10/03 04:00:39;;;;;;;20.50;15.27;;;;;;;9.02;100.00;97136.03;4991952;28;20037;-74
2022/10/03 04:03:17;;;;;;;25.97;16.57;;;;;;;8.97;100.00;97148.69;5016154;28;20083;-74
2022/10/03 04:06:12;;;;;;;25.20;15.50;;;;;;;8.90;100.00;97143.13;5009319;28;20044;-74
2022/10/03 04:08:41;;;;;;;24.30;14.63;;;;;;;9.00;100.00;97143.19;4967313;28;20085;-73
2022/10/03 04:11:45;;;;;;;19.97;15.07;;;;;;;9.00;100.00;97147.59;5022237;28;20041;-74
2022/10/03 04:14:30;;;;;;;20.50;15.67;;;;;;;9.04;100.00;97141.97;4998991;28;20041;-74
2022/10/03 04:20:11;;;;;;;22.40;15.13;;;;;;;9.03;100.00;97148.19;4979353;28;20073;-74
2022/10/03 04:22:49;;;;;;;25.03;16.33;;;;;;;9.04;100.00;97149.84;5008897;28;20042;-74
2022/10/03 04:25:25;;;;;;;28.23;16.90;;;;;;;9.01;100.00;97157.97;5037504;28;20033;-74
2022/10/03 04:28:16;;;;;;;26.57;16.97;;;;;;;9.03;100.00;97152.59;5010801;28;20521;-74
2022/10/03 04:31:32;;;;;;;21.03;15.83;;;;;;;9.01;100.00;97152.72;5013225;28;20033;-74
2022/10/03 04:34:20;;;;;;;23.80;15.60;;;;;;;8.97;100.00;97152.13;4963866;28;20136;-74
2022/10/03 04:37:08;;;;;;;24.90;16.00;;;;;;;8.98;100.00;97158.22;4994009;28;20149;-74
2022/10/03 04:39:52;;;;;;;22.47;15.87;;;;;;;9.03;100.00;97161.31;5000986;28;20034;-74
2022/10/03 04:42:39;;;;;;;27.17;16.80;;;;;;;9.03;100.00;97163.09;5050686;28;20029;-73
2022/10/03 04:45:26;;;;;;;29.23;16.53;;;;;;;9.05;100.00;97159.38;5019129;28;20111;-74
2022/10/03 04:48:05;;;;;;;24.93;15.63;;;;;;;9.08;100.00;97161.75;5020285;28;20037;-74
2022/10/03 04:50:43;;;;;;;22.77;16.57;;;;;;;9.08;100.00;97166.16;5017294;28;20442;-74
2022/10/03 04:53:26;;;;;;;24.77;16.47;;;;;;;9.08;100.00;97164.38;5018732;28;20052;-74
2022/10/03 04:56:41;;;;;;;22.58;12.68;;;;;;;9.12;100.00;97162.31;5015056;28;20046;-74
2022/10/03 04:59:26;;;;;;;22.47;15.83;;;;;;;9.14;100.00;97156.00;4970059;28;20570;-74
2022/10/03 05:02:17;;;;;;;21.97;16.27;;;;;;;9.13;100.00;97161.38;5005948;28;20384;-74
2022/10/03 05:05:11;;;;;;;23.50;14.97;;;;;;;9.15;100.00;97162.91;5011376;28;20079;-74
2022/10/03 05:07:55;;;;;;;;;;;;;;;9.16;100.00;97163.75;5006231;28;20514;-74
2022/10/03 05:10:36;;;;;;;20.23;15.23;;;;;;;9.14;100.00;97160.41;5039073;28;19951;-74
2022/10/03 05:13:13;;;;;;;32.97;16.47;;;;;;;9.12;100.00;97163.19;5019209;28;20044;-74
2022/10/03 05:16:27;;;;;;;28.10;16.77;;;;;;;9.12;100.00;97167.56;5015585;28;20030;-74
2022/10/03 05:19:08;;;;;;;38.63;18.80;;;;;;;9.07;100.00;97172.38;4999058;28;20034;-73
2022/10/03 05:22:03;;;;;;;31.67;17.73;;;;;;;9.16;100.00;97172.44;5015292;28;20038;-74
2022/10/03 05:25:01;;;;;;;28.43;16.90;;;;;;;9.16;100.00;97163.75;4989536;28;20034;-74
2022/10/03 05:27:44;;;;;;;33.87;18.20;;;;;;;9.13;100.00;97170.06;4995988;28;21876;-73
2022/10/03 05:31:01;;;;;;;20.63;12.30;;;;;;;9.16;100.00;97174.25;5020299;28;20164;-74
2022/10/03 05:33:47;;;;;;;31.27;18.83;;;;;;;9.16;100.00;97179.50;5003054;28;20049;-74
2022/10/03 05:36:47;;;;;;;26.70;16.80;;;;;;;9.20;100.00;97186.16;5017203;28;20064;-73
2022/10/03 05:39:50;;;;;;;28.63;17.23;;;;;;;9.16;100.00;97185.56;5012623;28;20492;-73
2022/10/03 05:42:34;;;;;;;31.50;18.97;;;;;;;9.11;100.00;97192.97;5007552;28;20044;-74
2022/10/03 05:45:14;;;;;;;26.90;18.27;;;;;;;9.10;100.00;97191.31;4999585;28;20156;-73
2022/10/03 05:47:55;;;;;;;28.73;17.87;;;;;;;9.04;100.00;97191.81;5007310;28;20088;-74
2022/10/03 05:50:40;;;;;;;26.40;16.97;;;;;;;9.05;100.00;97190.84;5004262;28;20038;-74
2022/10/03 05:53:43;;;;;;;28.43;17.97;;;;;;;9.07;100.00;97196.81;5016457;28;20042;-74
2022/10/03 05:56:46;;;;;;;23.93;16.40;;;;;;;9.06;100.00;97197.78;5007609;28;20052;-73
2022/10/03 05:59:21;;;;;;;30.23;17.70;;;;;;;9.03;100.00;97199.84;5012539;28;20495;-74
2022/10/03 06:01:57;;;;;;;32.93;16.47;;;;;;;9.06;100.00;97195.16;5007889;28;20045;-74
2022/10/03 06:04:42;;;;;;;34.30;15.97;;;;;;;9.03;100.00;97200.66;5015182;28;20391;-74
2022/10/03 06:07:49;;;;;;;29.13;16.07;;;;;;;9.08;100.00;97206.34;5008084;28;20034;-74
2022/10/03 06:10:33;;;;;;;22.73;15.67;;;;;;;9.08;100.00;97203.72;4993872;28;20043;-74
2022/10/03 06:13:15;;;;;;;25.83;15.77;;;;;;;9.09;100.00;97210.66;5015726;28;20692;-74
2022/10/03 06:15:57;;;;;;;40.53;16.20;;;;;;;9.12;100.00;97220.03;5012986;28;20026;-74
2022/10/03 06:18:52;;;;;;;38.30;18.33;;;;;;;9.13;100.00;97211.25;5014674;28;20033;-74
2022/10/03 06:21:26;;;;;;;305.37;27.10;;;;;;;9.03;100.00;97216.41;5016452;28;20486;-74
2022/10/03 06:24:10;;;;;;;100.23;18.63;;;;;;;9.10;100.00;97221.97;5009474;28;20038;-74
2022/10/03 06:27:03;;;;;;;63.17;17.50;;;;;;;9.25;100.00;97228.56;5030290;28;20037;-74
2022/10/03 06:29:56;;;;;;;24.20;15.10;;;;;;;9.36;100.00;97223.28;5015160;28;20056;-74
2022/10/03 06:32:40;;;;;;;67.00;16.75;;;;;;;9.33;100.00;97236.66;5017956;28;20083;-74
2022/10/03 06:35:27;;;;;;;41.67;14.53;;;;;;;9.30;100.00;97234.28;5018181;28;20037;-74
2022/10/03 06:38:14;;;;;;;70.73;15.87;;;;;;;9.37;100.00;97237.25;5019652;28;20033;-74
2022/10/03 06:41:01;;;;;;;41.23;14.43;;;;;;;9.30;100.00;97242.16;5013559;28;20033;-73
2022/10/03 06:44:06;;;;;;;23.43;14.67;;;;;;;9.44;100.00;97246.28;5011088;28;20052;-74
2022/10/03 06:46:40;;;;;;;;;;;;;;;9.31;100.00;97245.63;5012319;28;20042;-73
2022/10/03 06:49:33;;;;;;;34.47;15.33;;;;;;;9.39;100.00;97248.47;5020028;28;19941;-74
2022/10/03 06:52:27;;;;;;;48.97;14.00;;;;;;;9.54;100.00;97248.97;5016492;28;20117;-73
2022/10/03 06:55:18;;;;;;;18.77;12.73;;;;;;;9.64;100.00;97249.88;4997420;28;20480;-73
2022/10/03 06:58:11;;;;;;;170.83;19.60;;;;;;;9.54;100.00;97247.19;5027887;28;20091;-74
2022/10/03 07:00:48;;;;;;;84.23;14.50;;;;;;;9.51;100.00;97252.69;5014932;28;20033;-74
2022/10/03 07:04:14;;;;;;;139.97;16.63;;;;;;;9.45;100.00;97247.94;5035885;28;20045;-73
2022/10/03 07:06:50;;;;;;;45.37;13.20;;;;;;;9.62;100.00;97249.16;5001806;28;20179;-74
2022/10/03 07:09:34;;;;;;;109.83;14.87;;;;;;;9.56;100.00;97254.94;5017849;28;20486;-74
2022/10/03 07:12:06;;;;;;;36.37;12.60;;;;;;;9.68;100.00;97249.47;5031547;28;20384;-74
2022/10/03 07:15:09;;;;;;;52.77;12.63;;;;;;;9.72;100.00;97255.31;5016217;28;20044;-74
2022/10/03 07:17:42;;;;;;;17.40;11.65;;;;;;;9.86;100.00;97262.06;5007483;28;20038;-74
2022/10/03 07:20:47;;;;;;;19.25;11.60;;;;;;;9.85;100.00;97260.34;5017024;28;20030;-74
2022/10/03 07:23:29;;;;;;;14.43;10.83;;;;;;;9.96;100.00;97265.56;5017476;28;20079;-74
2022/10/03 07:26:33;;;;;;;19.90;11.10;;;;;;;10.00;100.00;97269.59;4999496;28;20483;-74
2022/10/03 07:29:11;;;;;;;15.43;10.55;;;;;;;10.11;100.00;97274.75;5009113;28;20046;-74
2022/10/03 07:32:18;;;;;;;18.40;9.83;;;;;;;10.40;100.00;97271.47;5014170;28;20042;-74
2022/10/03 07:38:56;;;;;;;17.67;9.27;;;;;;;10.36;100.00;97272.66;5008570;28;20403;-74
2022/10/03 07:38:57;;;;;;;15.43;10.00;;;;;;;10.40;100.00;97271.47;5015721;28;20025;-74
2022/10/03 07:41:44;;;;;;;22.83;10.87;;;;;;;10.45;100.00;97273.69;5009642;28;20377;-74
2022/10/03 07:44:29;;;;;;;16.10;9.13;;;;;;;10.39;100.00;97275.03;5017292;28;20757;-74
2022/10/03 07:47:14;;;;;;;14.13;9.33;;;;;;;10.32;100.00;97293.13;5016670;28;20045;-74
2022/10/03 07:50:05;;;;;;;18.47;8.43;;;;;;;10.25;100.00;97296.41;5011678;28;20040;-73
2022/10/03 07:52:49;;;;;;;13.07;8.40;;;;;;;10.27;100.00;97302.41;5006469;28;20033;-74
2022/10/03 07:55:25;;;;;;;20.75;8.38;;;;;;;10.49;100.00;97291.69;4984975;28;20048;-74
2022/10/03 07:58:08;;;;;;;13.80;8.07;;;;;;;11.00;100.00;97277.59;5005556;28;20056;-74
2022/10/03 08:00:43;;;;;;;16.63;7.27;;;;;;;11.03;100.00;97276.44;5008594;28;20048;-74
2022/10/03 08:03:37;;;;;;;16.37;8.20;;;;;;;11.10;100.00;97277.59;4993766;28;20460;-74
2022/10/03 08:06:25;;;;;;;15.30;8.73;;;;;;;11.36;100.00;97285.78;5007373;28;20112;-73
2022/10/03 08:09:12;;;;;;;18.33;7.27;;;;;;;11.60;100.00;97264.28;5019186;28;20042;-74
2022/10/03 08:12:00;;;;;;;12.83;6.50;;;;;;;12.21;100.00;97258.63;5027055;28;20675;-73
2022/10/03 08:14:28;;;;;;;17.40;8.83;;;;;;;12.24;100.00;97249.63;4986959;28;20030;-75
2022/10/03 08:17:00;;;;;;;22.53;11.13;;;;;;;11.81;100.00;97248.31;5022422;28;20525;-74
2022/10/03 08:19:37;;;;;;;15.27;6.53;;;;;;;12.08;100.00;97252.03;5015012;28;20099;-74
2022/10/03 08:22:37;;;;;;;12.37;6.23;;;;;;;12.01;100.00;97251.75;4990275;28;20499;-74
2022/10/03 08:25:21;;;;;;;11.47;6.20;;;;;;;12.01;100.00;97249.97;4993940;28;20139;-74
2022/10/03 08:27:56;;;;;;;13.90;5.87;;;;;;;11.94;100.00;97243.59;5011939;28;20116;-74
2022/10/03 08:30:28;;;;;;;13.17;6.03;;;;;;;12.36;100.00;97258.97;4986643;28;20042;-74
2022/10/03 08:33:15;;;;;;;11.30;5.67;;;;;;;12.14;100.00;97265.47;5037476;28;20111;-74
2022/10/03 08:35:52;;;;;;;12.70;5.73;;;;;;;12.15;100.00;97266.28;5001633;28;20038;-74
2022/10/03 08:38:37;;;;;;;11.03;6.67;;;;;;;12.19;100.00;97260.56;4990183;28;20112;-74
2022/10/03 08:41:38;;;;;;;13.00;6.67;;;;;;;11.71;100.00;97263.31;5007915;28;20086;-74
2022/10/03 08:44:22;;;;;;;10.37;4.77;;;;;;;11.43;100.00;97265.81;5018316;28;20745;-74
2022/10/03 08:47:25;;;;;;;10.63;4.73;;;;;;;12.13;100.00;97261.16;4990935;28;20045;-74
2022/10/03 08:50:16;;;;;;;16.67;5.80;;;;;;;14.05;100.00;97231.88;5019103;28;20492;-74
2022/10/03 08:52:48;;;;;;;14.70;4.07;;;;;;;14.89;100.00;97215.22;5008193;28;20026;-74
2022/10/03 08:55:22;;;;;;;17.25;4.13;;;;;;;15.64;100.00;97211.63;5013976;28;20441;-74
2022/10/03 08:58:22;;;;;;;10.15;3.20;;;;;;;16.92;100.00;97199.16;5014967;28;20056;-74
2022/10/03 09:01:00;;;;;;;12.18;3.72;;;;;;;17.32;100.00;97200.69;5009584;28;20511;-75
2022/10/03 09:04:04;;;;;;;10.20;2.90;;;;;;;15.04;100.00;97210.94;5013046;28;20049;-75
2022/10/03 09:06:33;;;;;;;9.70;3.00;;;;;;;13.85;100.00;97226.00;5007475;28;20038;-75
2022/10/03 09:09:31;;;;;;;11.43;2.97;;;;;;;13.73;100.00;97228.03;5008363;28;20057;-75
2022/10/03 09:12:41;;;;;;;12.05;4.03;;;;;;;13.65;100.00;97228.00;5006154;28;20116;-75
2022/10/03 09:15:30;;;;;;;18.00;6.90;;;;;;;12.98;100.00;97230.19;5024907;28;20029;-75
2022/10/03 09:18:05;;;;;;;12.90;5.18;;;;;;;13.08;100.00;97232.75;5008395;28;20030;-74
2022/10/03 09:20:34;;;;;;;10.55;4.57;;;;;;;12.92;100.00;97234.25;5012034;28;20037;-74
2022/10/03 09:23:37;;;;;;;8.73;4.18;;;;;;;12.77;100.00;97240.16;5004750;28;20042;-74
2022/10/03 09:26:45;;;;;;;10.95;4.57;;;;;;;13.26;100.00;97233.59;5018075;28;20663;-75
2022/10/03 09:29:29;;;;;;;10.88;3.38;;;;;;;13.85;100.00;97226.81;5006630;28;20510;-74
2022/10/03 09:32:20;;;;;;;11.60;3.92;;;;;;;13.39;100.00;97233.22;5006493;28;20025;-74
2022/10/03 09:35:40;;;;;;;11.90;3.88;;;;;;;13.06;100.00;97234.72;5017041;28;20044;-74
2022/10/03 09:38:42;;;;;;;11.77;3.90;;;;;;;13.08;100.00;97236.22;5020296;28;20033;-75
2022/10/03 09:41:41;;;;;;;10.05;3.83;;;;;;;13.03;100.00;97241.13;4997351;28;20025;-74
2022/10/03 09:44:31;;;;;;;12.02;4.80;;;;;;;13.21;100.00;97234.03;5015352;28;20076;-73
2022/10/03 09:47:27;;;;;;;14.18;3.75;;;;;;;13.28;100.00;97236.94;5023639;28;20546;-74
2022/10/03 09:50:18;;;;;;;16.65;8.02;;;;;;;13.25;100.00;97234.59;5008530;28;20045;-74
2022/10/03 09:53:08;;;;;;;11.30;3.95;;;;;;;13.36;100.00;97228.25;5010736;28;20040;-74
2022/10/03 09:55:51;;;;;;;7.63;3.05;;;;;;;13.15;100.00;97233.81;5015238;28;20048;-74
2022/10/03 09:59:06;;;;;;;11.82;2.97;;;;;;;12.92;100.00;97233.41;5019321;28;20084;-74
2022/10/03 10:01:42;;;;;;;8.40;2.85;;;;;;;12.99;100.00;97237.13;5002202;28;20058;-76
2022/10/03 10:04:23;;;;;;;11.25;3.25;;;;;;;13.67;100.00;97223.38;5024289;28;20402;-75
2022/10/03 10:07:13;;;;;;;8.68;2.97;;;;;;;13.99;100.00;97224.59;5012349;28;20029;-74
2022/10/03 10:09:46;;;;;;;9.88;2.90;;;;;;;14.44;100.00;97212.88;5003598;28;20029;-74
2022/10/03 10:12:50;;;;;;;9.50;2.80;;;;;;;16.31;100.00;97204.22;5019292;28;20038;-74
2022/10/03 10:15:48;;;;;;;;;;;;;;;17.89;100.00;97202.06;5005632;28;20426;-74
2022/10/03 10:18:32;;;;;;;11.05;2.38;;;;;;;17.73;100.00;97196.88;4988058;28;19936;-74
2022/10/03 10:21:31;;;;;;;8.57;2.60;;;;;;;17.68;100.00;97200.91;5020792;28;20084;-74
2022/10/03 10:24:15;;;;;;;12.73;2.80;;;;;;;17.04;100.00;97202.25;5020975;28;20495;-74
2022/10/03 10:27:12;;;;;;;7.40;2.30;;;;;;;16.46;100.00;97204.31;5023939;28;20037;-74
2022/10/03 10:30:00;;;;;;;6.32;2.08;;;;;;;16.67;100.00;97214.38;5020251;28;20111;-74
2022/10/03 10:32:48;;;;;;;7.53;2.42;;;;;;;16.26;100.00;97211.84;5009207;28;20068;-74
2022/10/03 10:35:26;;;;;;;10.00;2.58;;;;;;;15.92;100.00;97217.41;5015198;28;21431;-74
2022/10/03 10:38:19;;;;;;;12.07;2.70;;;;;;;15.26;100.00;97221.91;5016534;28;20064;-74
2022/10/03 10:41:10;;;;;;;7.40;3.05;;;;;;;14.72;100.00;97221.44;5005719;28;20034;-74
2022/10/03 10:44:08;;;;;;;7.10;2.28;;;;;;;14.66;100.00;97224.75;5011319;28;20164;-74
2022/10/03 10:47:04;;;;;;;10.13;3.25;;;;;;;15.57;100.00;97216.78;4994859;28;20099;-74
2022/10/03 10:49:45;;;;;;;5.85;1.85;;;;;;;16.79;100.00;97212.19;5022951;28;20601;-74
2022/10/03 10:52:13;;;;;;;6.43;2.10;;;;;;;17.66;100.00;97202.91;5021956;28;20406;-74
2022/10/03 10:55:23;;;;;;;9.52;2.20;;;;;;;16.63;100.00;97213.91;5017762;28;20208;-74
2022/10/03 10:58:26;;;;;;;12.95;4.25;;;;;;;16.55;100.00;97210.44;5017445;28;20407;-74
2022/10/03 11:01:14;;;;;;;13.73;3.55;;;;;;;15.81;100.00;97215.94;5016494;28;20040;-75
2022/10/03 11:04:01;;;;;;;13.25;3.33;;;;;;;17.42;100.00;97211.09;5022158;28;20070;-74
2022/10/03 11:06:40;;;;;;;9.85;2.53;;;;;;;17.88;100.00;97209.22;5010134;28;20052;-74
2022/10/03 11:09:43;;;;;;;12.82;2.40;;;;;;;17.92;100.00;97206.22;5015919;28;20073;-75
2022/10/03 11:12:41;;;;;;;12.97;4.20;;;;;;;17.04;100.00;97210.22;5015222;28;20037;-75
2022/10/03 11:15:25;;;;;;;14.55;3.28;;;;;;;17.23;100.00;97214.22;5000955;28;20491;-75
2022/10/03 11:18:07;;;;;;;13.43;6.22;;;;;;;16.23;100.00;97221.00;4990856;28;20036;-74
2022/10/03 11:21:23;;;;;;;12.15;4.88;;;;;;;15.65;100.00;97218.59;4996160;28;20911;-75
2022/10/03 11:24:13;;;;;;;12.27;6.07;;;;;;;15.37;100.00;97216.28;5022231;28;20038;-74
2022/10/03 11:27:00;;;;;;;11.48;3.53;;;;;;;15.55;100.00;97218.75;5002721;28;20484;-74
2022/10/03 11:29:54;;;;;;;9.68;2.53;;;;;;;15.69;100.00;97217.28;5029758;28;20037;-74
2022/10/03 11:32:38;;;;;;;;;;;;;;;15.71;100.00;97216.13;5011521;28;20495;-74
2022/10/03 11:35:43;;;;;;;8.20;3.05;;;;;;;15.51;100.00;97209.47;5021058;28;19970;-73
2022/10/03 11:38:35;;;;;;;9.32;2.95;;;;;;;15.17;100.00;97207.00;5022719;28;20038;-74
2022/10/03 11:41:32;;;;;;;6.90;2.22;;;;;;;15.12;100.00;97199.50;5020948;28;20494;-74
2022/10/03 11:44:22;;;;;;;7.20;2.40;;;;;;;15.99;100.00;97205.97;5008935;28;20563;-74
2022/10/03 11:47:12;;;;;;;8.20;2.30;;;;;;;16.33;100.00;97202.25;5018377;28;20461;-74
2022/10/03 11:49:44;;;;;;;12.02;2.70;;;;;;;16.25;100.00;97203.06;5001133;28;20033;-75
2022/10/03 11:52:28;;;;;;;8.32;3.75;;;;;;;15.98;100.00;97199.00;5018091;28;20041;-76
2022/10/03 11:55:19;;;;;;;9.30;2.92;;;;;;;15.56;100.00;97196.56;5016022;28;20042;-77
2022/10/03 11:58:10;;;;;;;6.72;2.10;;;;;;;15.33;100.00;97194.56;4994929;28;20057;-76
2022/10/03 12:00:39;;;;;;;6.45;2.25;;;;;;;15.07;100.00;97194.72;5024769;28;20052;-75
2022/10/03 12:03:14;;;;;;;8.30;2.00;;;;;;;15.10;100.00;97196.22;5000526;28;20037;-75
2022/10/03 12:05:48;;;;;;;9.48;2.33;;;;;;;14.89;100.00;97201.13;5016487;28;20034;-77
2022/10/03 12:11:22;;;;;;;6.78;2.00;;;;;;;15.07;100.00;97192.06;5019056;28;20052;-77
2022/10/03 12:13:56;;;;;;;10.55;3.45;;;;;;;15.37;100.00;97194.25;5015667;28;20660;-77
2022/10/03 12:16:26;;;;;;;5.90;1.77;;;;;;;14.92;100.00;97192.88;5007934;28;20042;-76
2022/10/03 12:19:00;;;;;;;4.70;1.80;;;;;;;15.47;100.00;97198.38;5004164;28;20041;-76
2022/10/03 12:21:53;;;;;;;7.00;2.00;;;;;;;15.57;100.00;97198.22;5024660;28;20041;-76
2022/10/03 12:24:27;;;;;;;4.03;1.63;;;;;;;15.25;100.00;97199.84;5013242;28;20068;-77
2022/10/03 12:27:01;;;;;;;7.18;2.75;;;;;;;15.38;100.00;97187.94;5014058;28;20034;-77
2022/10/03 12:29:32;;;;;;;9.68;2.78;;;;;;;14.92;100.00;97182.28;4998211;28;20049;-77
2022/10/03 12:32:32;;;;;;;10.65;2.60;;;;;;;15.40;100.00;97184.13;5009589;28;20026;-76
2022/10/03 12:35:25;;;;;;;8.38;1.70;;;;;;;15.20;100.00;97181.00;5015015;28;20034;-77
2022/10/03 12:38:05;;;;;;;7.28;1.92;;;;;;;15.26;100.00;97185.63;5014273;28;20048;-77
2022/10/03 12:40:43;;;;;;;9.93;3.22;;;;;;;15.94;100.00;97180.94;4989731;28;20142;-77
2022/10/03 12:44:03;;;;;;;5.97;2.17;;;;;;;16.24;100.00;97179.38;5020685;28;20049;-78
2022/10/03 12:47:11;;;;;;;6.43;2.10;;;;;;;16.43;99.42;97165.69;5009198;28;20067;-77
2022/10/03 12:49:55;;;;;;;4.50;1.65;;;;;;;17.17;94.21;97154.66;5006566;28;20590;-76
2022/10/03 12:52:30;;;;;;;9.93;1.70;;;;;;;17.14;94.45;97150.50;5008853;28;20033;-76
2022/10/03 12:55:17;;;;;;;7.28;1.95;;;;;;;17.38;97.99;97162.78;5012048;28;20037;-75
2022/10/03 12:57:46;;;;;;;7.13;2.03;;;;;;;17.45;98.01;97152.25;5003993;28;20129;-75
2022/10/03 13:00:25;;;;;;;10.40;1.65;;;;;;;17.38;98.51;97144.16;5011803;28;20479;-75